Angora, Minnesota
Current Conditions -  °F | °C
As of 3:35 PM on Sunday 21 Dec 2014 (Local Time) from KCQM Reporting Station
Haze Haze  
Wind Chill: 21°   Ceiling: 500
Heat Index: 30°   Visibility: 3mi
Dew Point: 30°   Wind: 10mph
Humidity: 100%   Direction: 150°SSE
Pressure: 29.71"   Gusts: NA
Location:  47.77°N, 92.63°W
Report Text: KCQM 212135Z AUTO 15009KT 3SM BR OVC005 M01/M01 A2971 RMK AO2
Loading
Personal Weather Stations






























Interactive Weather Map New forecast layout! Learn more

10-Day Weather Forecast

Advertisements
Track Severe Weather on mobile